CheckWX is a tool to help pilots better visualize weather data.  It is not intended as a substitute for an official pre-flight weather briefing.

07:54:01 UTC

KADU METAR
Audubon County Airport
Audubon, Iowa, USA
Current

19 mins ago

KADU 150735Z AUTO 00000KT 10SM CLR M09/M11 A3032 RMK AO2
Observed
Nov-15 @ 07:35 UTC
Visibility
10 SM
Flight Rules
VFR
Cloud Levels
  • Clear skies
Temperature
-9°C / 16°F
Dewpoint
-11°C / 12°F
Humidity
86%
Altimeter
30.32" Hg
Pressure
1026.72 hPa
Previous

39 mins ago

KADU 150715Z AUTO 00000KT 10SM CLR M09/M11 A3032 RMK AO2
Observed
Nov-15 @ 07:15 UTC
Visibility
10 SM
Flight Rules
VFR
Cloud Levels
  • Clear skies
Temperature
-9°C / 16°F
Dewpoint
-11°C / 12°F
Humidity
86%
Altimeter
30.32" Hg
Pressure
1026.72 hPa
Previous

59 mins ago

KADU 150655Z AUTO 00000KT 10SM CLR M08/M10 A3032 RMK AO2
Observed
Nov-15 @ 06:55 UTC
Visibility
10 SM
Flight Rules
VFR
Cloud Levels
  • Clear skies
Temperature
-8°C / 18°F
Dewpoint
-10°C / 14°F
Humidity
86%
Altimeter
30.32" Hg
Pressure
1026.72 hPa